Hlavní strana
METAR-TAF:

METAR-TAF

Letiště :

Västerås, Švédsko

zeměpisná šířka: 59-35N, zeměpisná délka: 016-38E, výška: 6 m

Aktuální stav počasí

Zpráva byla vytvořena před 11 minutami, v 17:20 UTC
Západní vítr 6 kt, proměnlivý mezi jihojihozápadním a severozápadním
Teplota 4°C
Vlhkost vzduchu 56%
Tlak 988 hPa
Viditelnost 10 km a více

METAR: ESOW 231720Z AUTO 27006KT 210V310 9999 NCD 04/M04 Q0988

Čas: 18:31 (17:31 UTC)

Předpověď počasí

Zpráva byla vytvořena před 6 hodinami a 1 minutami, v 11:30 UTC
Předpověď platná od 23 v 12 UTC do 23 v 15 UTC
Západní vítr 13 kt
Viditelnost 10 km a více
Žádná oblačnost pod 1500 m, nevyskytují se cumulonimby.

TAF: ESOW 231130Z 2312/2315 26013KT CAVOK

Stav a předpovědi počasí z více než 4 000 letišť (zprávy METAR a TAF).

Červené a žluté tečky na mapě představují dostupné meteorologické stanice.

Když kurzor umístíte na tečku, zobrazí se název stanice.

Pak kliknutím zobrazíte stav a předpověď počasí.

Chcete-li změnit mapu, kliknutím na zelené tlačítko se znaménkem +mapu přiblížíte, kliknutím na zelené tlačítko se znaménkem – mapu oddálíte a kliknutím na zelené šipky přejdete na sousední mapy.


METAR-TAF: